This is the latest recevied weather packets stored in our database for station/object DJ4RO-13. If no packets are shown the sender has not sent any weather packets the latest 10 day(s).
| Time | Temp. | Humidity | Pressure | Rain* | Wind** | Luminosity | Snow |
|---|---|---|---|---|---|---|---|
| 1777132717 | 15.56° C | 50% | 1017.2 hPa | 0 mm | - | 124 W/m² | - |
| 1777132397 | 16.11° C | 49% | 1017.4 hPa | 0 mm | - | 147 W/m² | - |
| 1777132077 | 16.11° C | 50% | 1017.4 hPa | 0 mm | - | 172 W/m² | - |
| 1777131757 | 15.56° C | 50% | 1017.6 hPa | 0 mm | - | 162 W/m² | - |
| 1777131437 | 16.11° C | 50% | 1017.7 hPa | 0 mm | - | 166 W/m² | - |
| 1777131117 | 16.11° C | 51% | 1017.4 hPa | 0 mm | - | 178 W/m² | - |
| 1777130797 | 16.11° C | 51% | 1017.5 hPa | 0 mm | - | 192 W/m² | - |
| 1777130477 | 16.11° C | 52% | 1017.4 hPa | 0 mm | - | 210 W/m² | - |
| 1777130157 | 16.67° C | 49% | 1017.3 hPa | 0 mm | - | 75 W/m² | - |
| 1777129838 | 16.67° C | 50% | 1017.2 hPa | 0 mm | - | 232 W/m² | - |
| 1777129517 | 16.67° C | 49% | 1017.5 hPa | 0 mm | - | 243 W/m² | - |
| 1777129197 | 16.67° C | 49% | 1017.4 hPa | 0 mm | - | 257 W/m² | - |
| 1777128877 | 16.67° C | 50% | 1017.6 hPa | 0 mm | - | 265 W/m² | - |
| 1777128557 | 17.22° C | 50% | 1017.5 hPa | 0 mm | - | 278 W/m² | - |
| 1777128237 | 16.67° C | 50% | 1017.4 hPa | 0 mm | - | 291 W/m² | - |
| 1777127917 | 16.67° C | 50% | 1017.4 hPa | 0 mm | - | 300 W/m² | - |
| 1777127597 | 16.67° C | 49% | 1017.6 hPa | 0 mm | - | 310 W/m² | - |
| 1777127277 | 16.67° C | 51% | 1017.7 hPa | 0 mm | - | 319 W/m² | - |
| 1777126941 | 17.22° C | 49% | 1017.8 hPa | 0 mm | - | 335 W/m² | - |
| 1777126621 | 16.67° C | 50% | 1017.8 hPa | 0 mm | - | 347 W/m² | - |
| 1777126301 | 16.11° C | 51% | 1017.7 hPa | 0 mm | - | 366 W/m² | - |
| 1777125981 | 16.11° C | 52% | 1017.8 hPa | 0 mm | - | 364 W/m² | - |
| 1777125661 | 16.11° C | 51% | 1017.7 hPa | 0 mm | - | 380 W/m² | - |
| 1777125325 | 16.11° C | 51% | 1017.8 hPa | 0 mm | - | 386 W/m² | - |
| 1777125005 | 16.11° C | 51% | 1018 hPa | 0 mm | - | 397 W/m² | - |
* Rain latest hour (hover to see other rain measurements)
** Current wind speed in m/s (hover to see current wind gust speed)